• Join FlightAware (Why Join?)
  • Login
  • US Flag 
07:48AM EST


 

Airport Tracker/Info


-or-


 

Live Flight TrackerFlight Track Log ✈ OPT452 ✈ 19-Apr-2013 ✈ KRDU - KJZI

Flight Track Log - Related Links

Times and Time Zones

All times are in EDT time to prevent confusion due to time zone crossing. See the OPT452 flight status page for this flight to view local times or setup timezone preferences in your user account.

Time Position Orientation Groundspeed Altitude Reporting Facility
EDT Latitude Longitude Course Direction KTS MPH feet Rate Location/Type
03:51PM 35.8561 -78.8083 197° South 178 205 1,500  Level Washington Center
03:52PM 35.8183 -78.8222 197° South 217 250 3,400 2,700 Climbing Washington Center
03:53PM 35.7636 -78.8378 193° South 227 261 5,900 3,060 Climbing Washington Center
03:54PM 35.7056 -78.8228 168° South 245 282 9,200 3,000 Climbing Washington Center
03:55PM 35.6569 -78.7747 141° Southeast 255 293 11,900 2,040 Climbing Washington Center
03:56PM 35.6019 -78.7189 140° Southeast 255 293 13,300 2,100 Climbing Washington Center
03:57PM 35.5428 -78.6628 142° Southeast 260 299 16,100 2,340 Climbing Washington Center
03:58PM 35.4858 -78.6097 143° Southeast 265 305 18,000 1,800 Climbing Washington Center
03:59PM 35.4164 -78.6300 193° South 241 277 19,800 1,500 Climbing Washington Center
04:00PM 35.3447 -78.6631 201° Southwest 252 290 21,100 1,080 Climbing Washington Center
04:01PM 35.2686 -78.7033 203° Southwest 285 328 22,000 420 Climbing Washington Center
04:02PM 35.1839 -78.7458 202° Southwest 307 353 22,000  Level Washington Center
04:03PM 35.0950 -78.7931 203° Southwest 337 388 22,000  Level Washington Center
04:04PM 35.0061 -78.8403 204° Southwest 345 397 22,000  Level Washington Center
04:05PM 34.9172 -78.8872 203° Southwest 350 403 22,000  Level Washington Center
04:06PM 34.8283 -78.9317 202° Southwest 350 403 22,000  Level Washington Center
04:07PM 34.7417 -78.9764 203° Southwest 350 403 22,000  Level Washington Center
04:09PM 34.5650 -79.0678 203° Southwest 344 396 22,000  Level Jacksonville Center
04:10PM 34.4767 -79.1172 205° Southwest 344 396 22,000  Level Jacksonville Center
04:11PM 34.3883 -79.1586 201° Southwest 349 402 22,000  Level Jacksonville Center
04:12PM 34.3000 -79.2053 204° Southwest 349 402 22,000 -300 Level Jacksonville Center
04:13PM 34.2114 -79.2467 201° Southwest 349 402 21,500 -1,080 Descending Jacksonville Center
04:14PM 34.1169 -79.2958 203° Southwest 356 410 19,900 -1,740 Descending Jacksonville Center
04:15PM 34.0222 -79.3447 203° Southwest 361 415 18,100 -1,500 Descending Jacksonville Center
04:16PM 33.9400 -79.3881 204° Southwest 355 409 16,900 -720 Descending Jacksonville Center
04:17PM 33.8578 -79.4264 201° Southwest 341 392 16,700 -240 Descending Jacksonville Center
04:18PM 33.7794 -79.4669 203° Southwest 323 372 16,500 -240 Descending Jacksonville Center
04:19PM 33.6969 -79.5050 201° Southwest 323 372 16,300 -300 Descending Jacksonville Center
04:20PM 33.6147 -79.5481 204° Southwest 323 372 16,000 -720 Descending Jacksonville Center
04:21PM 33.5303 -79.5911 203° Southwest 323 372 14,900 -1,200 Descending Jacksonville Center
04:22PM 33.4500 -79.6317 203° Southwest 323 372 13,600 -1,320 Descending Jacksonville Center
04:23PM 33.3694 -79.6692 201° Southwest 323 372 12,400 -1,680 Descending Jacksonville Center
04:24PM 33.2956 -79.7092 204° Southwest 311 358 10,300 -2,100 Descending Jacksonville Center
04:25PM 33.2272 -79.7389 200° South 287 330 8,200 -2,160 Descending Jacksonville Center
04:26PM 33.1583 -79.7317 175° South 253 291 6,100 -2,100 Descending Jacksonville Center
04:27PM 33.0933 -79.7264 176° South 246 283 4,000 -1,560 Descending Jacksonville Center
04:28PM 33.0375 -79.7408 192° South 232 267 3,000 -540 Descending Jacksonville Center
04:29PM 32.9817 -79.7625 198° South 221 254 3,000  Level Jacksonville Center
04:31PM 32.8592 -79.8678 203° Southwest  Level Estimated
04:38PM 32.7000 -80.0000 212° Southwest  Level FlightAware Approximate
04:39PM 32.7010 -80.0033 212° Southwest  Level Estimated
04:40PM 32.7000 -80.0000 212° Southwest  Level FlightAware Approximate